createdAt,value
2023-11-01T00:01:20.240Z,7.13
2023-11-01T00:03:54.301Z,6.47
2023-11-01T00:06:22.518Z,13.00
2023-11-01T00:08:50.943Z,9.70
2023-11-01T00:11:19.171Z,8.48
2023-11-01T00:13:48.751Z,10.30
2023-11-01T00:16:17.395Z,16.63
2023-11-01T00:18:45.477Z,8.23
2023-11-01T00:21:13.622Z,12.52
2023-11-01T00:23:41.854Z,17.42
2023-11-01T00:26:10.108Z,15.73
2023-11-01T00:28:38.459Z,23.65
2023-11-01T00:31:08.047Z,23.38
2023-11-01T00:33:36.350Z,18.25
2023-11-01T00:36:05.142Z,19.38
2023-11-01T00:38:36.779Z,25.13
2023-11-01T00:41:05.690Z,26.58
2023-11-01T00:43:34.041Z,24.27
2023-11-01T00:46:02.390Z,23.70
2023-11-01T00:48:32.353Z,25.38
2023-11-01T00:51:00.498Z,24.55
2023-11-01T00:53:28.925Z,23.55
2023-11-01T00:55:57.249Z,25.20
2023-11-01T00:58:25.887Z,30.15
2023-11-01T01:00:54.233Z,30.73
2023-11-01T01:03:22.623Z,32.90
2023-11-01T01:05:53.096Z,39.10
2023-11-01T01:08:21.306Z,31.92
2023-11-01T01:10:49.528Z,30.38
2023-11-01T01:13:17.788Z,34.30
2023-11-01T01:15:46.082Z,38.88
2023-11-01T01:18:16.059Z,30.73
2023-11-01T01:20:44.507Z,32.60
2023-11-01T01:23:15.126Z,34.28
2023-11-01T01:25:43.437Z,30.90
2023-11-01T01:28:11.700Z,29.20
2023-11-01T01:30:39.970Z,47.20
2023-11-01T01:33:09.935Z,36.40
2023-11-01T01:35:38.126Z,32.83
2023-11-01T01:38:06.232Z,31.27
2023-11-01T01:40:35.939Z,45.72
2023-11-01T01:43:18.507Z,44.50
2023-11-01T01:45:47.460Z,39.28
2023-11-01T01:48:15.862Z,40.17
2023-11-01T01:50:44.441Z,40.28
2023-11-01T01:53:14.336Z,50.40
2023-11-01T01:55:44.873Z,43.10
2023-11-01T01:58:13.899Z,34.85
2023-11-01T02:00:43.025Z,38.80
2023-11-01T02:03:12.023Z,40.97
2023-11-01T02:05:40.796Z,36.90
2023-11-01T02:08:09.116Z,42.97
2023-11-01T02:10:38.245Z,40.80
2023-11-01T02:13:15.887Z,44.55
2023-11-01T02:15:46.476Z,42.88
2023-11-01T02:18:15.289Z,44.33
2023-11-01T02:20:47.087Z,43.58
2023-11-01T02:23:17.639Z,57.40
2023-11-01T02:25:47.546Z,48.35
2023-11-01T02:28:16.882Z,48.58
2023-11-01T02:30:45.331Z,51.17
2023-11-01T02:33:13.551Z,52.75
2023-11-01T02:35:41.925Z,54.97
2023-11-01T02:38:12.573Z,45.45
2023-11-01T02:40:41.119Z,43.80
2023-11-01T02:43:11.244Z,45.20
2023-11-01T02:45:40.958Z,41.58
2023-11-01T02:48:09.328Z,49.20
2023-11-01T02:50:37.633Z,46.75
2023-11-01T02:53:07.534Z,52.97
2023-11-01T02:55:35.670Z,47.38
2023-11-01T02:58:04.518Z,34.28
2023-11-01T03:00:34.700Z,41.60
2023-11-01T03:03:04.492Z,38.22
2023-11-01T03:05:33.255Z,36.55
2023-11-01T03:08:01.706Z,36.40
2023-11-01T03:10:29.908Z,32.25
2023-11-01T03:12:58.468Z,34.28
2023-11-01T03:15:27.200Z,37.55
2023-11-01T03:17:58.403Z,31.75
2023-11-01T03:20:26.747Z,31.75
2023-11-01T03:22:56.147Z,27.23
2023-11-01T03:25:24.432Z,37.97
2023-11-01T03:27:52.593Z,29.65
2023-11-01T03:30:23.343Z,34.90
2023-11-01T03:32:51.666Z,29.83
2023-11-01T03:35:21.825Z,31.95
2023-11-01T03:37:50.310Z,27.02
2023-11-01T03:40:19.231Z,30.23
2023-11-01T03:42:47.575Z,23.10
2023-11-01T03:45:16.098Z,27.85
2023-11-01T03:47:45.034Z,29.95
2023-11-01T03:50:14.606Z,25.70
2023-11-01T03:52:44.981Z,28.95
2023-11-01T03:55:14.277Z,26.98
2023-11-01T03:57:42.984Z,22.13
2023-11-01T04:00:22.518Z,22.83
2023-11-01T04:02:52.729Z,23.55
2023-11-01T04:05:21.931Z,21.48
2023-11-01T04:07:52.127Z,24.35
2023-11-01T04:10:22.584Z,25.88
2023-11-01T04:12:51.534Z,21.55
2023-11-01T04:15:22.664Z,21.05
2023-11-01T04:17:53.302Z,18.92
2023-11-01T04:20:22.397Z,22.77
2023-11-01T04:22:52.569Z,24.70
2023-11-01T04:25:21.895Z,21.92
2023-11-01T04:27:51.202Z,19.33
2023-11-01T04:30:20.185Z,19.33
2023-11-01T04:32:50.374Z,25.48
2023-11-01T04:35:19.109Z,26.95
2023-11-01T04:37:47.540Z,22.08
2023-11-01T04:40:17.435Z,24.30
2023-11-01T04:42:46.623Z,24.08
2023-11-01T04:45:15.144Z,21.35
2023-11-01T04:47:44.123Z,23.88
2023-11-01T04:50:13.750Z,27.92
2023-11-01T04:52:43.778Z,20.63
2023-11-01T04:55:13.626Z,15.95
2023-11-01T04:57:44.362Z,29.05
2023-11-01T05:00:18.065Z,24.30
2023-11-01T05:02:48.570Z,23.63
2023-11-01T05:05:18.339Z,21.98
2023-11-01T05:07:49.490Z,19.00
2023-11-01T05:10:18.303Z,20.33
2023-11-01T05:12:48.619Z,22.58
2023-11-01T05:15:17.707Z,24.25
2023-11-01T05:17:48.074Z,22.15
2023-11-01T05:20:16.664Z,23.23
2023-11-01T05:22:46.116Z,20.20
2023-11-01T05:25:17.769Z,21.73
2023-11-01T05:27:56.709Z,13.65
2023-11-01T05:30:25.639Z,22.42
2023-11-01T05:32:54.050Z,21.25
2023-11-01T05:35:22.531Z,17.95
2023-11-01T05:37:50.841Z,20.40
2023-11-01T05:40:20.430Z,22.63
2023-11-01T05:42:49.750Z,18.00
2023-11-01T05:45:21.551Z,15.43
2023-11-01T05:47:53.176Z,19.80
2023-11-01T05:50:26.153Z,19.73
2023-11-01T05:52:56.967Z,18.20
2023-11-01T05:55:37.929Z,17.38
2023-11-01T05:58:18.857Z,18.23
2023-11-01T06:00:49.787Z,21.13
2023-11-01T06:03:18.356Z,21.00
2023-11-01T06:05:48.485Z,15.60
2023-11-01T06:08:16.713Z,17.70
2023-11-01T06:10:45.679Z,22.25
2023-11-01T06:13:16.670Z,19.92
2023-11-01T06:15:45.057Z,23.55
2023-11-01T06:18:14.799Z,19.08
2023-11-01T06:20:43.261Z,20.08
2023-11-01T06:23:11.676Z,19.95
2023-11-01T06:25:39.949Z,21.13
2023-11-01T06:28:09.480Z,23.08
2023-11-01T06:30:38.051Z,21.50
2023-11-01T06:33:06.589Z,23.05
2023-11-01T06:35:36.148Z,24.35
2023-11-01T06:38:04.466Z,29.00
2023-11-01T06:40:32.669Z,20.85
2023-11-01T06:43:01.058Z,24.30
2023-11-01T06:45:29.528Z,32.03
2023-11-01T06:47:58.048Z,28.88
2023-11-01T06:50:26.629Z,35.40
2023-11-01T06:52:57.114Z,30.40
2023-11-01T06:55:25.536Z,36.10
2023-11-01T06:57:53.932Z,39.08
2023-11-01T07:00:25.310Z,39.47
2023-11-01T07:02:53.717Z,38.08
2023-11-01T07:05:22.211Z,43.58
2023-11-01T07:07:50.491Z,51.53
2023-11-01T07:10:20.176Z,52.47
2023-11-01T07:12:48.437Z,36.85
2023-11-01T07:15:18.075Z,40.42
2023-11-01T07:17:46.927Z,61.95
2023-11-01T07:20:15.403Z,43.80
2023-11-01T07:22:46.187Z,43.03
2023-11-01T07:25:14.862Z,41.38
2023-11-01T07:27:44.418Z,40.20
2023-11-01T07:30:13.090Z,38.20
2023-11-01T07:32:41.357Z,36.35
2023-11-01T07:35:10.386Z,36.80
2023-11-01T07:37:38.580Z,42.22
2023-11-01T07:40:09.731Z,34.80
2023-11-01T07:42:39.391Z,37.17
2023-11-01T07:45:11.165Z,49.28
2023-11-01T07:47:40.066Z,38.65
2023-11-01T07:50:11.641Z,41.85
2023-11-01T07:52:41.488Z,28.83
2023-11-01T07:55:10.750Z,38.88
2023-11-01T07:57:39.799Z,34.30
2023-11-01T08:00:11.526Z,30.63
2023-11-01T08:02:39.983Z,45.00
2023-11-01T08:05:09.259Z,37.40
2023-11-01T08:07:37.458Z,43.20
2023-11-01T08:10:06.868Z,26.15
2023-11-01T08:12:35.118Z,31.77
2023-11-01T08:15:03.231Z,28.27
2023-11-01T08:17:33.798Z,37.05
2023-11-01T08:20:03.067Z,35.58
2023-11-01T08:22:31.437Z,31.10
2023-11-01T08:24:59.946Z,27.38
2023-11-01T08:27:28.463Z,28.13
2023-11-01T08:29:56.664Z,37.78
2023-11-01T08:32:24.892Z,20.65
2023-11-01T08:34:55.223Z,33.20
2023-11-01T08:37:23.661Z,27.52
2023-11-01T08:39:51.866Z,33.20
2023-11-01T08:42:20.081Z,28.40
2023-11-01T08:44:48.647Z,22.73
2023-11-01T08:47:35.664Z,23.33
2023-11-01T08:50:06.945Z,24.17
2023-11-01T08:52:35.382Z,24.48
2023-11-01T08:55:04.259Z,20.42
2023-11-01T08:57:32.807Z,29.20
2023-11-01T09:00:02.389Z,27.75
2023-11-01T09:02:30.950Z,26.42
2023-11-01T09:04:59.599Z,26.02
2023-11-01T09:07:29.166Z,27.50
2023-11-01T09:10:00.620Z,22.48
2023-11-01T09:12:30.771Z,22.83
2023-11-01T09:14:59.279Z,22.98
2023-11-01T09:17:27.940Z,25.58
2023-11-01T09:19:56.158Z,21.00
2023-11-01T09:22:24.602Z,21.33
2023-11-01T09:24:54.469Z,18.33
2023-11-01T09:27:22.879Z,22.83
2023-11-01T09:29:51.343Z,23.92
2023-11-01T09:32:19.783Z,22.33
2023-11-01T09:34:48.713Z,22.75
2023-11-01T09:37:18.316Z,26.20
2023-11-01T09:39:47.499Z,20.73
2023-11-01T09:42:22.205Z,20.75
2023-11-01T09:44:56.834Z,31.92
2023-11-01T09:47:27.024Z,23.30
2023-11-01T09:49:56.508Z,27.52
2023-11-01T09:52:25.515Z,16.80
2023-11-01T09:54:54.401Z,14.85
2023-11-01T09:57:28.595Z,19.15
2023-11-01T09:59:57.498Z,24.25
2023-11-01T10:02:26.318Z,22.45
2023-11-01T10:04:54.834Z,19.83
2023-11-01T10:07:23.026Z,19.85
2023-11-01T10:09:52.311Z,19.00
2023-11-01T10:12:20.680Z,11.75
2023-11-01T10:14:50.409Z,20.35
2023-11-01T10:17:18.578Z,25.25
2023-11-01T10:19:48.539Z,22.05
2023-11-01T10:22:16.977Z,17.75
2023-11-01T10:24:47.643Z,14.45
2023-11-01T10:27:15.708Z,17.83
2023-11-01T10:29:46.695Z,18.00
2023-11-01T10:32:16.543Z,18.05
2023-11-01T10:34:44.913Z,11.45
2023-11-01T10:37:13.460Z,13.88
2023-11-01T10:39:42.381Z,16.52
2023-11-01T10:42:11.625Z,13.02
2023-11-01T10:44:40.505Z,18.20
2023-11-01T10:47:10.249Z,16.08
2023-11-01T10:49:43.189Z,10.70
2023-11-01T10:52:12.224Z,13.57
2023-11-01T10:54:40.642Z,14.57
2023-11-01T10:57:09.218Z,16.85
2023-11-01T10:59:47.396Z,17.90
2023-11-01T11:02:24.051Z,17.73
2023-11-01T11:05:11.592Z,16.88
2023-11-01T11:07:48.376Z,12.30
2023-11-01T11:10:25.528Z,15.85
2023-11-01T11:13:30.845Z,9.38
2023-11-01T11:16:07.950Z,18.33
2023-11-01T11:18:57.909Z,13.65
2023-11-01T11:22:00.547Z,12.00
2023-11-01T11:24:53.807Z,9.23
2023-11-01T11:28:03.526Z,16.45
2023-11-01T11:31:09.929Z,20.42
2023-11-01T11:33:41.056Z,15.65
2023-11-01T11:36:10.660Z,15.10
2023-11-01T11:38:48.744Z,12.52
2023-11-01T11:41:19.182Z,15.50
2023-11-01T11:44:07.494Z,16.58
2023-11-01T11:46:40.803Z,18.27
2023-11-01T11:49:10.672Z,18.98
2023-11-01T11:51:39.008Z,15.43
2023-11-01T11:54:18.743Z,37.25
2023-11-01T11:56:48.322Z,19.25
2023-11-01T11:59:25.781Z,16.13
2023-11-01T12:01:56.451Z,15.68
2023-11-01T12:04:31.743Z,19.05
2023-11-01T12:09:29.709Z,15.45
2023-11-01T12:11:59.957Z,22.40
2023-11-01T12:14:31.818Z,9.93
2023-11-01T12:17:03.475Z,16.65
2023-11-01T12:19:33.774Z,15.60
2023-11-01T12:22:03.397Z,11.10
2023-11-01T12:24:45.744Z,12.30
2023-11-01T12:27:15.525Z,14.15
2023-11-01T12:29:47.026Z,19.30
2023-11-01T12:32:18.122Z,12.35
2023-11-01T12:35:07.518Z,9.00
2023-11-01T12:37:37.232Z,18.83
2023-11-01T12:40:11.728Z,13.63
2023-11-01T12:42:41.990Z,16.70
2023-11-01T12:45:11.326Z,15.20
2023-11-01T12:47:45.762Z,16.38
2023-11-01T12:50:18.401Z,13.77
2023-11-01T12:52:47.263Z,15.35
2023-11-01T12:55:17.112Z,17.80
2023-11-01T12:57:48.453Z,8.57
2023-11-01T13:00:18.656Z,13.90
2023-11-01T13:02:47.430Z,13.05
2023-11-01T13:05:16.398Z,14.45
2023-11-01T13:07:46.877Z,13.57
2023-11-01T13:10:17.452Z,11.13
2023-11-01T13:12:48.324Z,12.20
2023-11-01T13:15:18.357Z,12.30
2023-11-01T13:17:48.269Z,14.40
2023-11-01T13:20:16.797Z,12.95
2023-11-01T13:22:45.182Z,14.35
2023-11-01T13:25:13.312Z,12.05
2023-11-01T13:27:42.885Z,11.95
2023-11-01T13:30:12.296Z,7.60
2023-11-01T13:32:40.502Z,9.60
2023-11-01T13:35:09.960Z,11.43
2023-11-01T13:37:38.062Z,10.32
2023-11-01T13:40:07.712Z,14.35
2023-11-01T13:42:35.775Z,10.55
2023-11-01T13:45:06.339Z,12.20
2023-11-01T13:47:34.788Z,7.40
2023-11-01T13:50:02.985Z,6.38
2023-11-01T13:52:32.123Z,18.55
2023-11-01T13:55:00.555Z,11.38
2023-11-01T13:57:29.067Z,12.85
2023-11-01T13:59:57.786Z,12.50
2023-11-01T14:02:27.360Z,12.50
2023-11-01T14:04:55.490Z,11.55
2023-11-01T14:07:23.681Z,9.52
2023-11-01T14:09:54.506Z,14.00
2023-11-01T14:12:22.888Z,10.30
2023-11-01T14:14:51.319Z,7.03
2023-11-01T14:17:19.469Z,6.47
2023-11-01T14:19:48.963Z,10.98
2023-11-01T14:22:17.175Z,7.88
2023-11-01T14:24:47.679Z,7.32
2023-11-01T14:27:16.351Z,12.05
2023-11-01T14:29:44.418Z,5.95
2023-11-01T14:32:12.636Z,8.35
2023-11-01T14:34:40.855Z,6.80
2023-11-01T14:37:10.787Z,11.32
2023-11-01T14:39:39.835Z,14.45
2023-11-01T14:42:09.869Z,10.70
2023-11-01T14:44:39.817Z,12.75
2023-11-01T14:47:08.157Z,8.68
2023-11-01T14:49:36.776Z,13.40
2023-11-01T14:52:05.553Z,12.13
2023-11-01T14:54:35.040Z,8.50
2023-11-01T14:57:03.238Z,7.40
2023-11-01T14:59:31.547Z,8.35
2023-11-01T15:02:00.221Z,10.82
2023-11-01T15:04:28.704Z,10.68
2023-11-01T15:06:57.270Z,7.68
2023-11-01T15:09:25.554Z,12.77
2023-11-01T15:11:55.098Z,10.05
2023-11-01T15:14:23.354Z,10.98
2023-11-01T15:16:51.621Z,16.17
2023-11-01T15:19:19.959Z,8.73
2023-11-01T15:21:49.786Z,4.28
2023-11-01T15:24:19.595Z,9.25
2023-11-01T15:26:47.745Z,5.63
2023-11-01T15:29:17.547Z,11.05
2023-11-01T15:31:45.658Z,10.23
2023-11-01T15:34:13.851Z,5.55
2023-11-01T15:36:44.386Z,11.40
2023-11-01T15:39:13.817Z,8.93
2023-11-01T15:41:43.538Z,5.95
2023-11-01T15:44:14.527Z,7.72
2023-11-01T15:46:45.893Z,9.88
2023-11-01T15:49:16.108Z,11.30
2023-11-01T15:51:44.484Z,11.65
2023-11-01T15:54:13.026Z,6.05
2023-11-01T15:56:41.350Z,6.97
2023-11-01T15:59:09.787Z,7.60
2023-11-01T16:01:41.084Z,8.70
2023-11-01T16:04:11.674Z,6.68
2023-11-01T16:06:41.035Z,8.95
2023-11-01T16:09:12.947Z,6.47
2023-11-01T16:11:41.409Z,10.35
2023-11-01T16:14:12.308Z,7.15
2023-11-01T16:16:41.602Z,12.52
2023-11-01T16:19:14.904Z,11.82
2023-11-01T16:21:46.673Z,4.82
2023-11-01T16:24:15.419Z,6.22
2023-11-01T16:26:46.078Z,7.35
2023-11-01T16:29:14.241Z,9.30
2023-11-01T16:31:42.385Z,11.07
2023-11-01T16:34:10.533Z,11.73
2023-11-01T16:36:40.360Z,7.78
2023-11-01T16:39:08.751Z,13.27
2023-11-01T16:41:37.313Z,25.40
2023-11-01T16:44:05.756Z,16.88
2023-11-01T16:46:41.442Z,18.23
2023-11-01T16:49:12.206Z,11.23
2023-11-01T16:51:41.988Z,17.30
2023-11-01T16:54:10.594Z,10.27
2023-11-01T16:56:38.775Z,15.40
2023-11-01T16:59:07.091Z,10.30
2023-11-01T17:01:35.508Z,35.60
2023-11-01T17:04:06.562Z,10.10
2023-11-01T17:06:34.864Z,7.95
2023-11-01T17:09:04.519Z,6.10
2023-11-01T17:11:32.884Z,6.60
2023-11-01T17:14:01.091Z,10.10
2023-11-01T17:16:30.143Z,11.27
2023-11-01T17:18:58.990Z,8.95
2023-11-01T17:21:31.112Z,8.90
2023-11-01T17:24:00.250Z,5.47
2023-11-01T17:26:31.588Z,5.68
2023-11-01T17:29:01.753Z,8.55
2023-11-01T17:31:42.512Z,12.77
2023-11-01T17:34:12.838Z,11.40
2023-11-01T17:36:41.411Z,8.25
2023-11-01T17:39:10.200Z,7.72
2023-11-01T17:42:04.825Z,11.77
2023-11-01T17:44:38.340Z,11.80
2023-11-01T17:47:09.214Z,8.80
2023-11-01T17:49:57.833Z,6.20
2023-11-01T17:52:38.712Z,9.05
2023-11-01T17:55:11.035Z,5.55
2023-11-01T17:57:41.134Z,7.25
2023-11-01T18:00:10.835Z,10.85
2023-11-01T18:03:26.264Z,6.80
2023-11-01T18:05:55.409Z,6.35
2023-11-01T18:08:33.483Z,7.95
2023-11-01T18:11:05.596Z,8.77
2023-11-01T18:13:36.892Z,6.00
2023-11-01T18:16:08.585Z,8.07
2023-11-01T18:18:46.271Z,12.38
2023-11-01T18:21:32.319Z,10.35
2023-11-01T18:24:03.332Z,6.55
2023-11-01T18:26:33.038Z,10.57
2023-11-01T18:29:05.910Z,9.23
2023-11-01T18:31:39.386Z,7.10
2023-11-01T18:34:13.204Z,14.23
2023-11-01T18:36:44.669Z,5.28
2023-11-01T18:39:13.415Z,6.20
2023-11-01T18:41:45.846Z,16.10
2023-11-01T18:44:41.083Z,9.20
2023-11-01T18:47:10.271Z,10.20
2023-11-01T18:50:01.539Z,11.77
2023-11-01T18:52:32.750Z,12.38
2023-11-01T18:55:00.989Z,6.10
2023-11-01T18:57:34.883Z,11.13
2023-11-01T19:00:10.404Z,12.02
2023-11-01T19:03:18.055Z,10.93
2023-11-01T19:05:46.986Z,6.70
2023-11-01T19:08:17.958Z,9.30
2023-11-01T19:10:46.380Z,10.50
2023-11-01T19:13:16.516Z,6.88
2023-11-01T19:16:15.741Z,5.93
2023-11-01T19:18:46.726Z,9.32
2023-11-01T19:21:16.865Z,11.13
2023-11-01T19:23:47.246Z,12.15
2023-11-01T19:26:19.110Z,8.80
2023-11-01T19:28:47.674Z,10.63
2023-11-01T19:31:22.159Z,14.55
2023-11-01T19:33:53.383Z,9.05
2023-11-01T19:36:21.940Z,12.02
2023-11-01T19:38:53.345Z,9.85
2023-11-01T19:41:21.787Z,15.27
2023-11-01T19:43:57.231Z,7.25
2023-11-01T19:46:32.625Z,12.18
2023-11-01T19:49:03.284Z,11.05
2023-11-01T19:51:37.206Z,13.43
2023-11-01T19:54:08.532Z,7.22
2023-11-01T19:56:38.218Z,9.70
2023-11-01T19:59:07.073Z,7.65
2023-11-01T20:01:36.948Z,8.85
2023-11-01T20:04:06.082Z,11.25
2023-11-01T20:06:34.561Z,9.10
2023-11-01T20:09:03.005Z,13.07
2023-11-01T20:11:31.421Z,8.60
2023-11-01T20:14:01.184Z,15.68
2023-11-01T20:16:31.141Z,12.25
2023-11-01T20:19:01.142Z,10.98
2023-11-01T20:21:29.438Z,7.82
2023-11-01T20:23:57.718Z,10.18
2023-11-01T20:26:28.456Z,11.05
2023-11-01T20:28:56.650Z,12.80
2023-11-01T20:31:25.416Z,11.48
2023-11-01T20:33:53.905Z,11.68
2023-11-01T20:36:23.609Z,14.73
2023-11-01T20:38:51.909Z,11.63
2023-11-01T20:41:20.721Z,12.00
2023-11-01T20:43:49.068Z,11.52
2023-11-01T20:46:17.521Z,11.73
2023-11-01T20:48:45.874Z,9.32
2023-11-01T20:51:21.302Z,12.80
2023-11-01T20:53:51.085Z,8.35
2023-11-01T20:56:19.344Z,11.07
2023-11-01T20:58:47.521Z,14.77
2023-11-01T21:01:16.579Z,14.13
2023-11-01T21:03:45.027Z,14.38
2023-11-01T21:06:13.542Z,13.90
2023-11-01T21:08:42.459Z,9.70
2023-11-01T21:11:12.377Z,10.95
2023-11-01T21:13:42.018Z,9.70
2023-11-01T21:16:10.420Z,12.65
2023-11-01T21:18:38.730Z,8.13
2023-11-01T21:21:10.770Z,10.80
2023-11-01T21:23:40.230Z,9.02
2023-11-01T21:26:08.508Z,10.00
2023-11-01T21:28:40.683Z,10.18
2023-11-01T21:31:13.271Z,9.38
2023-11-01T21:33:44.196Z,10.80
2023-11-01T21:36:14.018Z,6.90
2023-11-01T21:38:44.525Z,7.75
2023-11-01T21:41:12.907Z,8.25
2023-11-01T21:43:50.245Z,10.23
2023-11-01T21:46:27.436Z,10.57
2023-11-01T21:48:55.852Z,7.47
2023-11-01T21:51:24.374Z,7.85
2023-11-01T21:53:52.592Z,13.63
2023-11-01T21:56:20.857Z,8.20
2023-11-01T21:59:01.868Z,7.70
2023-11-01T22:01:31.664Z,8.52
2023-11-01T22:04:10.317Z,10.88
2023-11-01T22:06:42.677Z,10.13
2023-11-01T22:09:16.756Z,9.55
2023-11-01T22:11:48.580Z,9.65
2023-11-01T22:14:33.721Z,13.52
2023-11-01T22:17:04.080Z,10.02
2023-11-01T22:19:38.381Z,12.18
2023-11-01T22:22:31.239Z,12.63
2023-11-01T22:24:59.896Z,9.88
2023-11-01T22:27:45.280Z,13.93
2023-11-01T22:30:19.925Z,17.55
2023-11-01T22:32:48.174Z,7.55
2023-11-01T22:35:36.176Z,8.68
2023-11-01T22:38:04.408Z,9.80
2023-11-01T22:40:34.558Z,12.65
2023-11-01T22:43:03.161Z,9.00
2023-11-01T22:45:33.409Z,15.63
2023-11-01T22:48:01.967Z,10.73
2023-11-01T22:50:30.498Z,9.05
2023-11-01T22:52:58.839Z,12.27
2023-11-01T22:55:40.624Z,8.70
2023-11-01T22:58:10.792Z,8.52
2023-11-01T23:00:40.644Z,10.63
2023-11-01T23:03:09.052Z,11.27
2023-11-01T23:05:40.306Z,11.65
2023-11-01T23:08:09.461Z,8.85
2023-11-01T23:10:37.966Z,11.23
2023-11-01T23:13:06.173Z,12.75
2023-11-01T23:15:35.445Z,8.13
2023-11-01T23:18:07.600Z,11.07
2023-11-01T23:20:35.847Z,14.70
2023-11-01T23:23:04.035Z,11.07
2023-11-01T23:25:35.655Z,12.15
2023-11-01T23:28:26.471Z,10.52
2023-11-01T23:30:55.362Z,13.43
2023-11-01T23:33:34.152Z,7.85
2023-11-01T23:36:06.867Z,12.55
2023-11-01T23:38:44.620Z,11.82
2023-11-01T23:41:31.537Z,8.93
2023-11-01T23:44:01.462Z,13.20
2023-11-01T23:46:30.316Z,17.13
2023-11-01T23:49:00.390Z,11.80
2023-11-01T23:51:59.020Z,16.73
2023-11-01T23:54:29.380Z,13.10
2023-11-01T23:56:57.487Z,14.43
2023-11-01T23:59:26.904Z,11.93
